createdAt,value
2022-11-17T00:01:11.736Z,88.03
2022-11-17T00:03:42.043Z,70.70
2022-11-17T00:06:13.753Z,73.47
2022-11-17T00:08:44.240Z,63.70
2022-11-17T00:11:14.762Z,65.50
2022-11-17T00:14:01.214Z,77.50
2022-11-17T00:16:31.802Z,82.82
2022-11-17T00:19:21.575Z,71.65
2022-11-17T00:21:52.079Z,86.77
2022-11-17T00:24:22.404Z,74.43
2022-11-17T00:27:07.880Z,80.05
2022-11-17T00:29:39.406Z,79.00
2022-11-17T00:32:32.482Z,88.30
2022-11-17T00:35:03.007Z,77.68
2022-11-17T00:37:37.910Z,70.97
2022-11-17T00:40:09.223Z,79.20
2022-11-17T00:42:39.641Z,80.53
2022-11-17T00:45:10.474Z,76.82
2022-11-17T00:47:40.915Z,77.47
2022-11-17T00:50:11.705Z,87.80
2022-11-17T00:52:42.174Z,94.28
2022-11-17T00:55:12.622Z,86.72
2022-11-17T00:57:43.108Z,72.28
2022-11-17T01:00:13.975Z,79.13
2022-11-17T01:02:44.415Z,88.28
2022-11-17T01:05:14.788Z,85.68
2022-11-17T01:07:45.243Z,73.50
2022-11-17T01:10:15.834Z,81.78
2022-11-17T01:15:16.060Z,85.13
2022-11-17T01:17:46.398Z,81.07
2022-11-17T01:20:17.021Z,84.70
2022-11-17T01:25:17.186Z,85.15
2022-11-17T01:27:47.572Z,80.28
2022-11-17T01:30:20.320Z,86.22
2022-11-17T01:32:50.690Z,95.50
2022-11-17T01:35:21.031Z,97.95
2022-11-17T01:37:51.322Z,97.68
2022-11-17T01:40:21.753Z,82.80
2022-11-17T01:42:52.058Z,105.88
2022-11-17T01:45:26.890Z,103.38
2022-11-17T01:48:02.510Z,90.25
2022-11-17T01:50:51.390Z,95.30
2022-11-17T01:53:24.337Z,97.13
2022-11-17T01:56:00.684Z,99.65
2022-11-17T01:58:37.494Z,103.47
2022-11-17T02:01:08.151Z,162.82
2022-11-17T02:06:30.473Z,200.32
2022-11-17T02:09:02.045Z,206.13
2022-11-17T02:11:38.109Z,175.60
2022-11-17T02:14:09.111Z,140.52
2022-11-17T02:16:39.453Z,137.77
2022-11-17T02:19:11.985Z,137.13
2022-11-17T02:22:11.928Z,148.57
2022-11-17T02:25:22.996Z,150.63
2022-11-17T02:28:24.067Z,153.45
2022-11-17T02:31:29.875Z,126.68
2022-11-17T02:34:20.447Z,137.15
2022-11-17T02:39:38.402Z,135.77
2022-11-17T02:42:19.844Z,136.75
2022-11-17T02:45:04.958Z,136.48
2022-11-17T02:47:38.971Z,133.60
2022-11-17T02:50:11.989Z,154.10
2022-11-17T02:52:42.342Z,150.93
2022-11-17T02:55:13.870Z,141.30
2022-11-17T02:57:44.576Z,141.40
2022-11-17T03:00:18.940Z,162.02
2022-11-17T03:03:15.769Z,141.88
2022-11-17T03:06:12.466Z,165.27
2022-11-17T03:09:00.136Z,157.40
2022-11-17T03:11:52.824Z,160.80
2022-11-17T03:14:32.376Z,161.77
2022-11-17T03:17:32.253Z,185.43
2022-11-17T03:20:16.028Z,180.27
2022-11-17T03:23:02.944Z,179.30
2022-11-17T03:25:39.095Z,167.82
2022-11-17T03:28:12.943Z,169.48
2022-11-17T03:30:46.540Z,175.98
2022-11-17T03:33:22.212Z,184.38
2022-11-17T03:35:59.143Z,174.90
2022-11-17T03:38:34.132Z,153.75
2022-11-17T03:41:05.795Z,157.30
2022-11-17T03:43:36.085Z,170.65
2022-11-17T03:48:52.537Z,141.45
2022-11-17T03:51:27.959Z,141.23
2022-11-17T03:53:58.965Z,143.88
2022-11-17T03:56:53.502Z,150.90
2022-11-17T03:59:38.366Z,146.48
2022-11-17T04:02:08.343Z,144.15
2022-11-17T04:04:54.889Z,132.80
2022-11-17T04:07:24.887Z,142.60
2022-11-17T04:09:54.715Z,147.25
2022-11-17T04:12:35.499Z,143.10
2022-11-17T04:15:25.118Z,141.48
2022-11-17T04:17:55.210Z,120.22
2022-11-17T04:20:25.306Z,120.15
2022-11-17T04:23:06.167Z,118.95
2022-11-17T04:25:56.170Z,128.00
2022-11-17T04:28:43.055Z,109.90
2022-11-17T04:31:24.362Z,129.70
2022-11-17T04:34:02.847Z,117.47
2022-11-17T04:36:36.712Z,121.90
2022-11-17T04:39:07.798Z,118.80
2022-11-17T04:41:57.188Z,130.02
2022-11-17T04:44:30.307Z,122.68
2022-11-17T04:47:01.119Z,122.50
2022-11-17T04:49:31.440Z,120.18
2022-11-17T04:54:31.001Z,122.90
2022-11-17T04:57:01.185Z,120.30
2022-11-17T04:59:31.257Z,127.65
2022-11-17T05:02:05.864Z,127.22
2022-11-17T05:04:48.682Z,121.93
2022-11-17T05:07:18.622Z,127.05
2022-11-17T05:09:48.491Z,110.18
2022-11-17T05:12:29.143Z,115.88
2022-11-17T05:14:59.006Z,110.93
2022-11-17T05:17:28.965Z,82.22
2022-11-17T05:19:59.841Z,85.70
2022-11-17T05:22:49.081Z,84.32
2022-11-17T05:25:19.251Z,75.68
2022-11-17T05:27:49.151Z,77.65
2022-11-17T05:30:19.042Z,71.03
2022-11-17T05:32:49.082Z,76.55
2022-11-17T05:35:18.914Z,78.47
2022-11-17T05:37:48.811Z,65.65
2022-11-17T05:40:18.985Z,50.47
2022-11-17T05:45:23.097Z,58.10
2022-11-17T05:47:52.930Z,62.75
2022-11-17T05:50:22.770Z,79.85
2022-11-17T05:52:52.753Z,88.78
2022-11-17T05:55:22.768Z,83.25
2022-11-17T05:57:54.632Z,93.00
2022-11-17T06:00:24.616Z,88.43
2022-11-17T06:02:59.355Z,90.55
2022-11-17T06:05:29.674Z,80.65
2022-11-17T06:08:00.589Z,92.78
2022-11-17T06:10:30.652Z,98.47
2022-11-17T06:13:00.573Z,91.47
2022-11-17T06:15:30.703Z,85.30
2022-11-17T06:18:14.275Z,92.13
2022-11-17T06:20:50.740Z,92.90
2022-11-17T06:23:22.611Z,84.72
2022-11-17T06:25:52.819Z,95.38
2022-11-17T07:13:32.598Z,70.82
2022-11-17T07:16:16.338Z,79.38
2022-11-17T07:18:49.271Z,83.35
2022-11-17T07:21:19.607Z,77.40
2022-11-17T07:23:49.611Z,80.97
2022-11-17T07:26:19.892Z,73.20
2022-11-17T07:31:19.063Z,80.97
2022-11-17T07:33:49.209Z,67.18
2022-11-17T07:36:19.131Z,80.85
2022-11-17T07:38:49.252Z,62.70
2022-11-17T07:41:19.238Z,65.20
2022-11-17T07:43:49.107Z,71.55
2022-11-17T07:46:19.307Z,64.70
2022-11-17T07:51:19.134Z,59.60
2022-11-17T07:56:19.472Z,59.35
2022-11-17T07:58:49.545Z,66.90
2022-11-17T08:01:22.837Z,74.47
2022-11-17T08:03:53.011Z,69.35
2022-11-17T08:06:24.467Z,57.25
2022-11-17T08:08:55.270Z,80.30
2022-11-17T08:11:25.664Z,64.72
2022-11-17T08:13:55.790Z,66.00
2022-11-17T08:18:55.117Z,58.50
2022-11-17T08:21:25.421Z,61.30
2022-11-17T08:26:28.300Z,59.42
2022-11-17T08:28:59.909Z,69.70
2022-11-17T08:31:30.071Z,62.30
2022-11-17T08:36:29.282Z,60.30
2022-11-17T08:38:59.476Z,61.53
2022-11-17T08:43:58.926Z,58.63
2022-11-17T08:46:28.964Z,59.90
2022-11-17T08:48:58.994Z,65.28
2022-11-17T08:51:30.703Z,59.22
2022-11-17T08:54:01.892Z,59.47
2022-11-17T08:56:31.867Z,57.58
2022-11-17T08:59:04.061Z,58.75
2022-11-17T09:01:34.461Z,56.92
2022-11-17T09:04:04.492Z,53.42
2022-11-17T09:06:34.584Z,53.08
2022-11-17T09:09:07.213Z,60.08
2022-11-17T09:11:37.405Z,60.28
2022-11-17T09:16:46.590Z,65.30
2022-11-17T09:19:16.641Z,59.92
2022-11-17T09:21:46.834Z,70.53
2022-11-17T09:26:46.362Z,58.22
2022-11-17T09:31:45.773Z,56.08
2022-11-17T09:34:15.774Z,55.00
2022-11-17T09:36:46.621Z,65.28
2022-11-17T09:39:17.160Z,55.83
2022-11-17T09:41:50.349Z,59.95
2022-11-17T09:44:42.372Z,64.07
2022-11-17T09:47:47.299Z,56.78
2022-11-17T09:50:23.979Z,65.57
2022-11-17T09:53:18.043Z,71.93
2022-11-17T09:56:00.026Z,66.75
2022-11-17T09:58:54.046Z,63.63
2022-11-17T10:01:25.319Z,75.72
2022-11-17T10:03:56.890Z,61.08
2022-11-17T10:06:30.433Z,61.90
2022-11-17T10:09:25.728Z,69.05
2022-11-17T10:11:59.933Z,68.50
2022-11-17T10:14:31.915Z,67.82
2022-11-17T10:17:02.125Z,73.13
2022-11-17T10:22:23.276Z,83.18
2022-11-17T10:24:57.267Z,71.93
2022-11-17T10:27:30.166Z,82.43
2022-11-17T10:30:22.566Z,82.70
2022-11-17T10:32:56.649Z,78.97
2022-11-17T10:35:29.111Z,73.70
2022-11-17T10:38:21.006Z,74.40
2022-11-17T10:40:54.215Z,71.78
2022-11-17T10:43:30.725Z,73.75
2022-11-17T10:46:06.519Z,93.43
2022-11-17T10:48:40.262Z,70.72
2022-11-17T10:51:25.530Z,83.60
2022-11-17T10:54:24.253Z,80.10
2022-11-17T10:56:57.905Z,78.32
2022-11-17T10:59:53.435Z,85.20
2022-11-17T11:02:41.601Z,72.50
2022-11-17T11:05:15.469Z,80.45
2022-11-17T11:07:45.769Z,81.75
2022-11-17T11:13:01.067Z,86.90
2022-11-17T11:15:37.220Z,89.97
2022-11-17T11:18:17.140Z,83.57
2022-11-17T11:21:22.755Z,83.28
2022-11-17T11:24:22.992Z,79.82
2022-11-17T11:27:28.662Z,89.70
2022-11-17T11:30:09.025Z,94.32
2022-11-17T11:35:56.691Z,90.28
2022-11-17T11:38:52.388Z,85.70
2022-11-17T11:41:54.265Z,112.07
2022-11-17T11:44:44.102Z,93.38
2022-11-17T11:47:40.534Z,96.60
2022-11-17T11:50:20.952Z,99.47
2022-11-17T11:55:35.539Z,95.47
2022-11-17T11:58:22.999Z,109.05
2022-11-17T12:01:09.762Z,113.30
2022-11-17T12:03:50.898Z,117.15
2022-11-17T12:06:51.495Z,125.75
2022-11-17T12:09:43.652Z,106.82
2022-11-17T12:12:32.491Z,103.25
2022-11-17T12:15:35.790Z,105.97
2022-11-17T12:18:33.030Z,113.20
2022-11-17T12:21:13.802Z,106.10
2022-11-17T12:24:13.131Z,105.70
2022-11-17T12:26:43.974Z,109.60
2022-11-17T12:29:30.295Z,113.38
2022-11-17T12:32:03.093Z,123.47
2022-11-17T12:34:38.928Z,117.25
2022-11-17T12:37:23.713Z,115.13
2022-11-17T12:40:00.927Z,119.25
2022-11-17T12:42:34.935Z,118.65
2022-11-17T12:45:11.577Z,113.65
2022-11-17T12:48:04.775Z,105.22
2022-11-17T12:51:00.516Z,112.38
2022-11-17T12:54:08.171Z,97.82
2022-11-17T12:56:55.699Z,106.40
2022-11-17T13:00:00.329Z,112.57
2022-11-17T13:02:48.534Z,113.57
2022-11-17T13:05:24.934Z,118.13
2022-11-17T13:08:26.552Z,109.80
2022-11-17T13:11:08.941Z,112.72
2022-11-17T13:13:42.606Z,119.65
2022-11-17T13:16:24.348Z,131.00
2022-11-17T13:18:55.227Z,121.80
2022-11-17T13:21:34.667Z,126.90
2022-11-17T13:24:11.614Z,154.27
2022-11-17T13:26:42.428Z,130.20
2022-11-17T13:29:22.699Z,113.55
2022-11-17T13:31:53.367Z,116.75
2022-11-17T13:34:23.937Z,126.72
2022-11-17T13:37:00.779Z,122.85
2022-11-17T13:39:31.868Z,124.55
2022-11-17T13:42:05.520Z,124.25
2022-11-17T13:44:37.026Z,119.50
2022-11-17T13:47:24.113Z,123.88
2022-11-17T13:49:54.463Z,124.53
2022-11-17T13:52:46.531Z,122.25
2022-11-17T13:55:23.195Z,123.53
2022-11-17T13:58:05.237Z,112.22
2022-11-17T14:00:36.344Z,107.82
2022-11-17T14:03:28.336Z,107.20
2022-11-17T14:05:59.640Z,114.82
2022-11-17T14:08:34.304Z,112.60
2022-11-17T14:11:24.687Z,121.80
2022-11-17T14:14:03.402Z,115.47
2022-11-17T14:16:45.038Z,121.05
2022-11-17T14:19:34.039Z,117.18
2022-11-17T14:22:31.801Z,120.95
2022-11-17T14:25:03.451Z,133.60
2022-11-17T14:27:42.791Z,143.55
2022-11-17T14:30:15.743Z,149.98
2022-11-17T14:32:47.128Z,155.32
2022-11-17T14:37:50.526Z,156.45
2022-11-17T14:40:22.813Z,151.68
2022-11-17T14:42:53.744Z,137.10
2022-11-17T14:45:29.480Z,147.73
2022-11-17T14:47:59.976Z,152.35
2022-11-17T14:50:31.463Z,129.82
2022-11-17T14:53:02.466Z,124.68
2022-11-17T14:55:33.361Z,119.00
2022-11-17T14:58:04.017Z,119.85
2022-11-17T15:00:35.439Z,121.88
2022-11-17T15:03:05.959Z,129.32
2022-11-17T15:08:08.197Z,121.82
2022-11-17T15:10:38.754Z,114.35
2022-11-17T15:18:14.961Z,109.10
2022-11-17T15:20:45.456Z,116.72
2022-11-17T15:23:16.001Z,126.03
2022-11-17T15:25:46.851Z,125.20
2022-11-17T15:28:22.423Z,116.65
2022-11-17T15:30:54.647Z,113.65
2022-11-17T15:33:25.369Z,131.38
2022-11-17T15:36:09.717Z,122.57
2022-11-17T15:38:42.069Z,110.75
2022-11-17T15:41:15.672Z,119.65
2022-11-17T15:43:47.822Z,105.68
2022-11-17T15:46:21.409Z,107.68
2022-11-17T15:48:59.467Z,110.85
2022-11-17T15:51:31.524Z,92.82
2022-11-17T15:54:03.041Z,106.97
2022-11-17T15:56:39.696Z,96.90
2022-11-17T15:59:10.344Z,103.03
2022-11-17T16:01:42.890Z,98.95
2022-11-17T16:04:18.218Z,100.43
2022-11-17T16:06:49.924Z,103.18
2022-11-17T16:09:20.588Z,106.97
2022-11-17T16:11:52.375Z,112.65
2022-11-17T16:14:23.671Z,112.93
2022-11-17T16:16:55.394Z,112.40
2022-11-17T16:19:26.304Z,117.30
2022-11-17T16:21:58.010Z,119.05
2022-11-17T16:24:29.071Z,125.57
2022-11-17T16:27:00.693Z,108.00
2022-11-17T16:29:31.504Z,124.80
2022-11-17T16:34:36.958Z,120.95
2022-11-17T16:37:07.746Z,131.00
2022-11-17T16:39:38.135Z,119.60
2022-11-17T16:42:09.795Z,118.75
2022-11-17T16:44:40.262Z,133.27
2022-11-17T16:49:41.095Z,120.55
2022-11-17T16:54:41.516Z,134.17
2022-11-17T16:57:12.230Z,115.20
2022-11-17T16:59:42.646Z,142.68
2022-11-17T17:02:16.247Z,139.35
2022-11-17T17:04:47.831Z,143.48
2022-11-17T17:07:19.134Z,147.68
2022-11-17T17:09:49.722Z,151.27
2022-11-17T17:14:50.931Z,133.13
2022-11-17T17:17:21.544Z,141.90
2022-11-17T17:22:22.218Z,128.47
2022-11-17T17:24:52.652Z,120.13
2022-11-17T17:27:24.434Z,126.70
2022-11-17T17:29:58.964Z,112.50
2022-11-17T17:32:29.663Z,114.93
2022-11-17T17:35:00.330Z,130.95
2022-11-17T17:37:30.895Z,112.20
2022-11-17T17:42:32.719Z,117.00
2022-11-17T17:45:03.337Z,105.07
2022-11-17T17:50:03.912Z,106.03
2022-11-17T17:52:34.460Z,102.32
2022-11-17T17:57:34.936Z,104.73
2022-11-17T18:00:06.680Z,105.75
2022-11-17T18:02:38.307Z,96.78
2022-11-17T18:05:09.278Z,100.40
2022-11-17T18:07:39.898Z,100.70
2022-11-17T18:12:47.859Z,100.15
2022-11-17T18:15:20.336Z,99.30
2022-11-17T18:17:52.309Z,98.15
2022-11-17T18:20:25.431Z,93.18
2022-11-17T18:22:58.324Z,96.97
2022-11-17T18:25:29.040Z,109.22
2022-11-17T18:27:59.470Z,100.03
2022-11-17T18:30:29.913Z,100.13
2022-11-17T18:33:02.943Z,91.90
2022-11-17T18:35:33.840Z,100.90
2022-11-17T18:40:36.286Z,106.25
2022-11-17T18:43:07.209Z,99.13
2022-11-17T18:45:40.566Z,110.88
2022-11-17T18:48:18.293Z,103.80
2022-11-17T18:51:17.775Z,101.65
2022-11-17T18:53:39.498Z,112.72
2022-11-17T18:56:12.907Z,110.40
2022-11-17T18:58:45.408Z,99.95
2022-11-17T19:01:22.030Z,92.75
2022-11-17T19:03:56.292Z,93.40
2022-11-17T19:06:30.597Z,92.15
2022-11-17T19:09:02.267Z,91.10
2022-11-17T19:11:35.029Z,86.57
2022-11-17T19:14:07.507Z,89.88
2022-11-17T19:16:44.064Z,94.47
2022-11-17T19:19:16.072Z,100.53
2022-11-17T19:21:46.879Z,103.32
2022-11-17T19:24:17.596Z,98.85
2022-11-17T19:26:49.511Z,96.25
2022-11-17T19:29:20.211Z,104.00
2022-11-17T19:31:51.412Z,89.47
2022-11-17T19:34:22.273Z,107.10
2022-11-17T19:36:52.713Z,94.90
2022-11-17T19:39:23.252Z,98.50
2022-11-17T19:44:23.740Z,101.07
2022-11-17T19:49:24.247Z,97.15
2022-11-17T19:54:25.244Z,96.90
2022-11-17T19:56:55.675Z,92.63
2022-11-17T19:59:26.128Z,82.57
2022-11-17T20:01:56.608Z,92.30
2022-11-17T20:06:57.689Z,96.40
2022-11-17T20:09:28.192Z,92.45
2022-11-17T20:11:58.641Z,93.80
2022-11-17T20:14:29.070Z,96.90
2022-11-17T20:16:59.625Z,90.55
2022-11-17T20:22:00.159Z,87.17
2022-11-17T20:27:01.161Z,92.22
2022-11-17T20:29:31.706Z,94.00
2022-11-17T20:32:02.165Z,87.15
2022-11-17T20:34:32.773Z,92.80
2022-11-17T20:39:32.978Z,91.90
2022-11-17T20:42:03.640Z,88.72
2022-11-17T20:47:04.300Z,105.35
2022-11-17T20:49:34.664Z,101.85
2022-11-17T20:52:09.086Z,98.78
2022-11-17T20:54:42.487Z,96.00
2022-11-17T20:57:12.977Z,99.78
2022-11-17T20:59:43.433Z,103.53
2022-11-17T21:02:14.975Z,99.03
2022-11-17T21:04:45.433Z,101.07
2022-11-17T21:07:15.955Z,100.90
2022-11-17T21:12:16.285Z,97.13
2022-11-17T21:14:46.877Z,98.88
2022-11-17T21:20:06.997Z,106.28
2022-11-17T21:22:37.444Z,99.88
2022-11-17T21:25:08.383Z,95.30
2022-11-17T21:27:38.908Z,101.13
2022-11-17T21:30:11.934Z,103.22
2022-11-17T21:32:42.413Z,92.35
2022-11-17T21:35:12.958Z,106.38
2022-11-17T21:40:13.557Z,93.97
2022-11-17T21:42:44.248Z,94.70
2022-11-17T21:45:15.108Z,83.75
2022-11-17T21:47:45.604Z,88.95
2022-11-17T21:50:16.049Z,91.05
2022-11-17T21:52:46.498Z,96.68
2022-11-17T21:55:17.283Z,92.55
2022-11-17T21:57:47.845Z,94.07
2022-11-17T22:00:18.648Z,87.93
2022-11-17T22:02:49.148Z,89.03
2022-11-17T22:05:20.168Z,92.72
2022-11-17T22:07:51.029Z,95.32
2022-11-17T22:10:21.399Z,100.43
2022-11-17T22:12:51.890Z,98.88
2022-11-17T22:15:22.324Z,105.25
2022-11-17T22:17:52.828Z,88.93
2022-11-17T22:22:56.341Z,92.30
2022-11-17T22:25:43.702Z,90.57
2022-11-17T22:28:16.872Z,86.43
2022-11-17T22:30:47.371Z,94.05
2022-11-17T22:33:18.330Z,89.35
2022-11-17T22:35:48.733Z,92.57
2022-11-17T22:38:19.888Z,87.32
2022-11-17T22:40:50.612Z,87.85
2022-11-17T22:43:21.089Z,95.03
2022-11-17T22:46:12.069Z,107.07
2022-11-17T22:48:42.715Z,109.78
2022-11-17T22:53:43.082Z,107.47
2022-11-17T22:56:13.566Z,103.38
2022-11-17T22:58:49.456Z,102.65
2022-11-17T23:01:20.486Z,94.25
2022-11-17T23:06:20.980Z,95.50
2022-11-17T23:11:36.509Z,100.80
2022-11-17T23:14:10.083Z,104.32
2022-11-17T23:16:40.985Z,99.07
2022-11-17T23:19:16.110Z,98.88
2022-11-17T23:21:46.777Z,95.55
2022-11-17T23:24:17.423Z,95.60
2022-11-17T23:29:17.801Z,103.82
2022-11-17T23:31:48.524Z,100.43
2022-11-17T23:34:18.985Z,102.07
2022-11-17T23:36:49.458Z,123.57
2022-11-17T23:39:19.973Z,111.18
2022-11-17T23:44:20.355Z,103.78
2022-11-17T23:49:20.528Z,103.35
2022-11-17T23:51:51.050Z,107.22
2022-11-17T23:54:21.566Z,110.30
2022-11-17T23:56:55.133Z,102.55
2022-11-17T23:59:25.587Z,105.65
